createdAt,value
2019-03-18T00:02:03.478Z,1.73
2019-03-18T00:04:36.630Z,1.27
2019-03-18T00:07:09.470Z,1.40
2019-03-18T00:09:45.319Z,1.23
2019-03-18T00:12:15.577Z,0.70
2019-03-18T00:14:45.423Z,1.40
2019-03-18T00:17:15.764Z,1.47
2019-03-18T00:19:45.733Z,1.10
2019-03-18T00:22:21.224Z,1.30
2019-03-18T00:24:53.652Z,1.77
2019-03-18T00:27:23.812Z,1.20
2019-03-18T00:29:53.793Z,1.80
2019-03-18T00:32:25.238Z,1.47
2019-03-18T00:34:59.163Z,1.50
2019-03-18T00:37:29.561Z,1.50
2019-03-18T00:40:00.608Z,1.53
2019-03-18T00:42:39.374Z,1.73
2019-03-18T00:45:14.658Z,1.80
2019-03-18T00:47:41.149Z,1.50
2019-03-18T00:50:11.312Z,1.60
2019-03-18T00:52:41.583Z,1.57
2019-03-18T00:55:23.858Z,1.70
2019-03-18T00:57:53.977Z,1.60
2019-03-18T01:00:27.284Z,1.40
2019-03-18T01:02:57.233Z,1.50
2019-03-18T01:05:29.053Z,1.70
2019-03-18T01:07:59.340Z,1.63
2019-03-18T01:10:30.869Z,1.90
2019-03-18T01:13:03.701Z,2.13
2019-03-18T01:15:33.537Z,1.93
2019-03-18T01:18:04.606Z,2.17
2019-03-18T01:20:34.313Z,2.17
2019-03-18T01:23:09.076Z,1.87
2019-03-18T01:25:38.888Z,1.90
2019-03-18T01:28:11.011Z,2.10
2019-03-18T01:30:40.896Z,2.10
2019-03-18T01:33:17.243Z,2.10
2019-03-18T01:35:49.972Z,2.20
2019-03-18T01:38:19.942Z,2.07
2019-03-18T01:40:49.902Z,2.20
2019-03-18T01:43:25.550Z,2.50
2019-03-18T01:45:57.384Z,1.63
2019-03-18T01:48:30.044Z,2.03
2019-03-18T01:50:59.896Z,1.93
2019-03-18T01:53:30.839Z,2.37
2019-03-18T01:56:02.302Z,2.33
2019-03-18T01:58:34.145Z,1.90
2019-03-18T02:01:07.069Z,2.30
2019-03-18T02:03:36.924Z,2.07
2019-03-18T02:06:12.552Z,2.27
2019-03-18T02:08:45.257Z,2.30
2019-03-18T02:11:15.123Z,1.80
2019-03-18T02:13:49.987Z,2.27
2019-03-18T02:16:21.092Z,2.57
2019-03-18T02:18:50.987Z,2.47
2019-03-18T02:21:21.831Z,2.40
2019-03-18T02:23:52.165Z,2.60
2019-03-18T02:26:22.128Z,3.00
2019-03-18T02:28:51.965Z,2.67
2019-03-18T02:31:21.831Z,2.17
2019-03-18T02:33:51.781Z,2.57
2019-03-18T02:36:21.562Z,2.43
2019-03-18T02:38:51.375Z,2.17
2019-03-18T02:41:21.186Z,2.93
2019-03-18T02:43:51.130Z,2.60
2019-03-18T02:46:20.983Z,2.73
2019-03-18T02:48:50.860Z,2.70
2019-03-18T02:51:20.625Z,2.73
2019-03-18T02:53:50.458Z,3.20
2019-03-18T02:56:20.599Z,2.70
2019-03-18T02:58:50.563Z,2.97
2019-03-18T03:01:20.541Z,3.50
2019-03-18T03:03:50.670Z,2.83
2019-03-18T03:06:20.712Z,1.57
2019-03-18T03:08:50.559Z,3.00
2019-03-18T03:11:20.374Z,3.77
2019-03-18T03:13:50.165Z,3.33
2019-03-18T03:16:29.239Z,3.23
2019-03-18T03:18:59.933Z,3.07
2019-03-18T03:21:29.828Z,2.60
2019-03-18T03:23:59.707Z,3.60
2019-03-18T03:26:29.556Z,2.13
2019-03-18T03:28:59.435Z,2.80
2019-03-18T03:31:30.358Z,3.03
2019-03-18T03:34:00.284Z,2.67
2019-03-18T03:36:30.218Z,3.20
2019-03-18T03:39:00.053Z,3.10
2019-03-18T03:41:30.049Z,3.53
2019-03-18T03:43:59.900Z,2.63
2019-03-18T03:46:42.449Z,3.20
2019-03-18T03:49:01.265Z,2.80
2019-03-18T03:51:31.234Z,2.30
2019-03-18T03:54:01.111Z,2.30
2019-03-18T03:56:31.037Z,3.13
2019-03-18T03:59:03.003Z,2.97
2019-03-18T04:01:32.924Z,3.23
2019-03-18T04:04:02.810Z,2.70
2019-03-18T04:06:32.669Z,2.80
2019-03-18T04:09:04.080Z,2.70
2019-03-18T04:11:33.925Z,3.03
2019-03-18T04:14:04.160Z,3.40
2019-03-18T04:16:33.982Z,3.60
2019-03-18T04:19:05.961Z,3.17
2019-03-18T04:21:35.805Z,3.57
2019-03-18T04:24:05.610Z,2.40
2019-03-18T04:26:35.309Z,3.17
2019-03-18T04:29:05.139Z,3.57
2019-03-18T04:31:34.974Z,3.40
2019-03-18T04:34:05.948Z,3.87
2019-03-18T04:36:35.700Z,3.80
2019-03-18T04:39:07.911Z,3.33
2019-03-18T04:41:37.731Z,4.30
2019-03-18T04:44:07.579Z,4.47
2019-03-18T04:46:37.437Z,3.50
2019-03-18T04:49:07.229Z,4.77
2019-03-18T04:51:37.116Z,4.70
2019-03-18T04:54:06.818Z,4.80
2019-03-18T04:56:36.738Z,5.40
2019-03-18T04:59:06.645Z,5.90
2019-03-18T05:01:37.508Z,5.80
2019-03-18T05:04:07.422Z,6.27
2019-03-18T05:06:38.323Z,6.07
2019-03-18T05:09:08.236Z,6.43
2019-03-18T05:12:02.345Z,6.60
2019-03-18T05:14:32.314Z,6.50
2019-03-18T05:17:02.216Z,6.50
2019-03-18T05:19:32.014Z,7.13
2019-03-18T05:22:01.833Z,7.00
2019-03-18T05:24:31.631Z,6.70
2019-03-18T05:27:01.509Z,7.07
2019-03-18T05:29:31.369Z,8.23
2019-03-18T05:32:04.951Z,8.40
2019-03-18T05:34:34.999Z,8.33
2019-03-18T05:37:05.315Z,8.00
2019-03-18T05:39:35.212Z,9.50
2019-03-18T05:42:05.090Z,7.87
2019-03-18T05:44:34.929Z,8.90
2019-03-18T05:47:05.951Z,10.17
2019-03-18T05:49:35.810Z,10.27
2019-03-18T05:52:05.626Z,9.23
2019-03-18T05:54:35.969Z,8.50
2019-03-18T05:57:05.922Z,9.40
2019-03-18T05:59:36.101Z,9.67
2019-03-18T06:02:06.124Z,9.57
2019-03-18T06:04:36.083Z,8.73
2019-03-18T06:07:06.214Z,9.90
2019-03-18T06:09:44.030Z,9.97
2019-03-18T06:12:13.965Z,10.03
2019-03-18T06:14:43.797Z,9.80
2019-03-18T06:17:13.815Z,9.53
2019-03-18T06:19:43.510Z,9.30
2019-03-18T06:22:13.434Z,10.03
2019-03-18T06:24:43.303Z,9.40
2019-03-18T06:27:13.155Z,10.30
2019-03-18T06:29:43.035Z,9.43
2019-03-18T06:32:12.823Z,8.60
2019-03-18T06:34:42.806Z,8.90
2019-03-18T06:37:12.949Z,9.67
2019-03-18T06:39:42.730Z,8.60
2019-03-18T06:42:12.834Z,8.33
2019-03-18T06:44:42.661Z,8.63
2019-03-18T06:47:14.462Z,8.37
2019-03-18T06:49:45.320Z,7.53
2019-03-18T06:52:15.256Z,7.27
2019-03-18T06:54:45.855Z,7.53
2019-03-18T06:57:15.711Z,7.70
2019-03-18T06:59:45.565Z,8.47
2019-03-18T07:02:16.015Z,8.50
2019-03-18T07:04:45.927Z,7.60
2019-03-18T07:07:17.734Z,8.20
2019-03-18T07:09:47.732Z,7.67
2019-03-18T07:12:17.592Z,7.87
2019-03-18T07:14:47.340Z,8.67
2019-03-18T07:17:17.173Z,8.53
2019-03-18T07:19:50.338Z,8.03
2019-03-18T07:22:20.156Z,9.00
2019-03-18T07:24:50.028Z,7.43
2019-03-18T07:27:19.854Z,8.83
2019-03-18T07:29:49.744Z,7.67
2019-03-18T07:32:19.712Z,7.60
2019-03-18T07:34:57.591Z,8.50
2019-03-18T07:37:27.398Z,8.20
2019-03-18T07:39:57.606Z,8.63
2019-03-18T07:42:27.488Z,7.30
2019-03-18T07:44:58.093Z,7.53
2019-03-18T07:47:28.342Z,7.27
2019-03-18T07:49:58.326Z,7.40
2019-03-18T07:52:28.581Z,8.30
2019-03-18T07:54:58.631Z,5.83
2019-03-18T07:57:32.828Z,7.50
2019-03-18T08:00:03.050Z,8.33
2019-03-18T08:02:32.873Z,8.23
2019-03-18T08:05:02.750Z,7.30
2019-03-18T08:07:32.623Z,6.37
2019-03-18T08:10:02.483Z,7.27
2019-03-18T08:12:33.367Z,5.70
2019-03-18T08:15:03.392Z,6.80
2019-03-18T08:17:33.264Z,5.93
2019-03-18T08:20:03.709Z,6.23
2019-03-18T08:22:34.654Z,5.90
2019-03-18T08:25:05.575Z,6.40
2019-03-18T08:27:35.430Z,6.60
2019-03-18T08:30:05.988Z,5.60
2019-03-18T08:32:35.791Z,5.57
2019-03-18T08:35:05.800Z,4.57
2019-03-18T08:37:35.776Z,4.50
2019-03-18T08:40:06.555Z,5.97
2019-03-18T08:42:36.629Z,4.57
2019-03-18T08:45:08.280Z,5.17
2019-03-18T08:47:38.182Z,5.80
2019-03-18T08:50:08.211Z,4.50
2019-03-18T08:52:38.192Z,4.90
2019-03-18T08:55:08.297Z,4.40
2019-03-18T08:57:38.167Z,4.70
2019-03-18T09:00:09.904Z,4.60
2019-03-18T09:02:39.784Z,4.10
2019-03-18T09:05:10.140Z,4.57
2019-03-18T09:07:41.079Z,4.60
2019-03-18T09:10:12.425Z,4.40
2019-03-18T09:12:42.481Z,5.27
2019-03-18T09:15:12.846Z,4.20
2019-03-18T09:17:42.888Z,5.03
2019-03-18T09:20:12.871Z,5.03
2019-03-18T09:22:42.744Z,4.63
2019-03-18T09:25:13.938Z,3.63
2019-03-18T09:27:44.157Z,4.53
2019-03-18T09:30:14.090Z,4.50
2019-03-18T09:32:43.818Z,3.60
2019-03-18T09:35:14.381Z,4.20
2019-03-18T09:37:44.277Z,2.50
2019-03-18T09:40:16.986Z,3.20
2019-03-18T09:42:49.082Z,3.23
2019-03-18T09:45:19.980Z,3.10
2019-03-18T09:47:50.776Z,4.07
2019-03-18T09:50:20.651Z,3.30
2019-03-18T09:52:51.800Z,3.20
2019-03-18T09:55:22.085Z,2.93
2019-03-18T09:57:52.214Z,2.57
2019-03-18T10:00:22.213Z,2.73
2019-03-18T10:02:52.154Z,2.27
2019-03-18T10:05:22.353Z,2.83
2019-03-18T10:07:54.199Z,3.27
2019-03-18T10:10:24.140Z,2.83
2019-03-18T10:12:54.389Z,2.37
2019-03-18T10:15:24.275Z,2.23
2019-03-18T10:17:54.096Z,2.37
2019-03-18T10:20:24.231Z,2.33
2019-03-18T10:22:55.282Z,3.00
2019-03-18T10:25:27.187Z,2.67
2019-03-18T10:28:01.939Z,2.93
2019-03-18T10:30:36.560Z,2.30
2019-03-18T10:33:06.146Z,2.50
2019-03-18T10:35:36.127Z,1.77
2019-03-18T10:38:06.916Z,2.00
2019-03-18T10:40:36.782Z,1.80
2019-03-18T10:43:06.817Z,2.20
2019-03-18T10:45:36.652Z,2.30
2019-03-18T10:48:06.586Z,2.10
2019-03-18T10:50:40.989Z,2.20
2019-03-18T10:53:11.977Z,1.90
2019-03-18T10:55:41.936Z,2.27
2019-03-18T10:58:11.914Z,2.50
2019-03-18T11:00:41.988Z,1.93
2019-03-18T11:03:13.242Z,2.20
2019-03-18T11:05:45.113Z,1.90
2019-03-18T11:08:15.397Z,1.73
2019-03-18T11:10:46.815Z,2.10
2019-03-18T11:13:18.926Z,2.30
2019-03-18T11:15:56.644Z,2.33
2019-03-18T11:18:27.136Z,1.63
2019-03-18T11:21:13.706Z,2.63
2019-03-18T11:23:43.913Z,2.30
2019-03-18T11:26:14.734Z,2.30
2019-03-18T11:28:47.498Z,2.77
2019-03-18T11:31:17.786Z,2.70
2019-03-18T11:33:47.818Z,2.30
2019-03-18T11:36:17.643Z,2.47
2019-03-18T11:38:55.299Z,2.13
2019-03-18T11:41:25.283Z,2.13
2019-03-18T11:44:14.950Z,2.63
2019-03-18T11:46:45.044Z,2.53
2019-03-18T11:49:15.215Z,3.07
2019-03-18T11:51:47.373Z,2.97
2019-03-18T11:54:21.501Z,3.37
2019-03-18T11:56:51.624Z,2.80
2019-03-18T11:59:23.442Z,2.43
2019-03-18T12:01:53.853Z,2.53
2019-03-18T12:04:23.926Z,2.70
2019-03-18T12:06:54.347Z,3.40
2019-03-18T12:09:24.321Z,2.97
2019-03-18T12:11:56.932Z,3.23
2019-03-18T12:14:26.769Z,2.43
2019-03-18T12:16:56.767Z,1.17
2019-03-18T12:19:29.479Z,1.30
2019-03-18T12:22:01.235Z,1.63
2019-03-18T12:24:31.916Z,1.50
2019-03-18T12:27:01.849Z,1.23
2019-03-18T12:29:32.226Z,0.90
2019-03-18T12:32:02.040Z,0.80
2019-03-18T12:34:38.773Z,1.70
2019-03-18T12:37:09.680Z,1.00
2019-03-18T12:39:39.515Z,1.00
2019-03-18T12:42:09.493Z,1.23
2019-03-18T12:44:40.704Z,1.30
2019-03-18T12:47:10.672Z,1.00
2019-03-18T12:49:40.683Z,0.90
2019-03-18T12:52:13.398Z,1.27
2019-03-18T12:54:44.855Z,1.73
2019-03-18T12:57:14.883Z,1.70
2019-03-18T12:59:45.038Z,1.70
2019-03-18T13:02:29.751Z,1.70
2019-03-18T13:04:59.276Z,1.67
2019-03-18T13:07:30.211Z,1.60
2019-03-18T13:10:00.389Z,1.57
2019-03-18T13:12:35.810Z,1.73
2019-03-18T13:15:07.149Z,1.70
2019-03-18T13:17:38.364Z,1.67
2019-03-18T13:20:14.015Z,1.37
2019-03-18T13:22:46.820Z,1.27
2019-03-18T13:25:19.032Z,1.70
2019-03-18T13:28:00.333Z,1.60
2019-03-18T13:30:30.296Z,1.43
2019-03-18T13:33:01.428Z,1.50
2019-03-18T13:35:31.321Z,1.60
2019-03-18T13:38:03.831Z,1.40
2019-03-18T13:40:35.591Z,2.60
2019-03-18T13:43:13.032Z,1.53
2019-03-18T13:45:54.588Z,1.67
2019-03-18T13:48:14.676Z,1.63
2019-03-18T13:50:44.621Z,1.83
2019-03-18T13:53:14.577Z,1.87
2019-03-18T13:55:47.181Z,1.70
2019-03-18T13:58:18.126Z,2.50
2019-03-18T14:00:48.070Z,1.37
2019-03-18T14:03:19.212Z,2.23
2019-03-18T14:05:49.100Z,1.63
2019-03-18T14:08:18.945Z,1.40
2019-03-18T14:10:48.934Z,1.53
2019-03-18T14:13:20.632Z,1.83
2019-03-18T14:15:50.741Z,1.30
2019-03-18T14:18:20.573Z,1.40
2019-03-18T14:20:50.520Z,1.83
2019-03-18T14:23:27.600Z,1.90
2019-03-18T14:25:57.863Z,1.60
2019-03-18T14:28:27.846Z,1.60
2019-03-18T14:31:00.459Z,1.80
2019-03-18T14:33:30.715Z,1.53
2019-03-18T14:36:03.077Z,2.07
2019-03-18T14:38:33.932Z,1.33
2019-03-18T14:41:05.385Z,1.50
2019-03-18T14:43:35.564Z,1.40
2019-03-18T14:46:05.705Z,1.80
2019-03-18T14:48:48.951Z,1.33
2019-03-18T14:51:20.979Z,1.80
2019-03-18T14:53:51.248Z,1.50
2019-03-18T14:56:21.351Z,1.80
2019-03-18T14:58:51.387Z,1.47
2019-03-18T15:01:21.473Z,1.30
2019-03-18T15:03:51.725Z,1.63
2019-03-18T15:06:22.160Z,1.73
2019-03-18T15:08:52.142Z,1.60
2019-03-18T15:11:22.011Z,1.70
2019-03-18T15:13:52.401Z,1.30
2019-03-18T15:16:22.287Z,1.40
2019-03-18T15:18:52.641Z,1.40
2019-03-18T15:21:24.954Z,1.53
2019-03-18T15:23:57.088Z,1.53
2019-03-18T15:26:28.184Z,1.80
2019-03-18T15:28:58.410Z,1.90
2019-03-18T15:31:29.404Z,1.63
2019-03-18T15:33:59.344Z,1.70
2019-03-18T15:36:31.348Z,1.60
2019-03-18T15:39:01.739Z,1.97
2019-03-18T15:41:32.345Z,1.53
2019-03-18T15:44:02.390Z,1.33
2019-03-18T15:46:32.652Z,1.30
2019-03-18T15:49:02.814Z,1.00
2019-03-18T15:51:32.726Z,1.20
2019-03-18T15:54:04.963Z,1.40
2019-03-18T15:56:34.918Z,1.53
2019-03-18T15:59:05.690Z,1.50
2019-03-18T16:01:35.893Z,1.37
2019-03-18T16:04:05.961Z,1.40
2019-03-18T16:06:35.718Z,1.43
2019-03-18T16:09:08.093Z,6.53
2019-03-18T16:11:38.255Z,3.53
2019-03-18T16:14:08.074Z,1.57
2019-03-18T16:16:37.831Z,1.40
2019-03-18T16:19:07.724Z,2.50
2019-03-18T16:21:37.465Z,1.70
2019-03-18T16:24:07.529Z,1.37
2019-03-18T16:26:37.380Z,1.50
2019-03-18T16:29:07.361Z,2.87
2019-03-18T16:31:37.716Z,1.83
2019-03-18T16:34:07.651Z,1.60
2019-03-18T16:36:37.751Z,1.80
2019-03-18T16:39:07.886Z,2.20
2019-03-18T16:41:37.896Z,3.20
2019-03-18T16:44:07.722Z,1.60
2019-03-18T16:46:44.111Z,1.60
2019-03-18T16:49:15.074Z,1.83
2019-03-18T16:51:45.067Z,2.40
2019-03-18T16:54:20.985Z,2.07
2019-03-18T16:56:52.242Z,2.20
2019-03-18T16:59:22.139Z,2.27
2019-03-18T17:01:52.231Z,2.47
2019-03-18T17:04:22.137Z,1.97
2019-03-18T17:06:54.095Z,2.60
2019-03-18T17:09:23.986Z,1.73
2019-03-18T17:11:53.999Z,1.70
2019-03-18T17:14:27.392Z,2.10
2019-03-18T17:16:57.355Z,1.80
2019-03-18T17:19:27.263Z,1.80
2019-03-18T17:21:57.145Z,1.60
2019-03-18T17:24:27.185Z,1.60
2019-03-18T17:26:59.482Z,1.77
2019-03-18T17:29:29.476Z,1.70
2019-03-18T17:31:59.479Z,1.43
2019-03-18T17:34:30.095Z,1.77
2019-03-18T17:37:00.743Z,2.43
2019-03-18T17:39:33.108Z,1.73
2019-03-18T17:42:03.493Z,1.60
2019-03-18T17:44:36.205Z,1.23
2019-03-18T17:47:07.397Z,1.57
2019-03-18T17:49:37.116Z,1.40
2019-03-18T17:52:08.436Z,1.83
2019-03-18T17:54:38.788Z,2.00
2019-03-18T17:57:11.035Z,1.70
2019-03-18T17:59:42.779Z,2.30
2019-03-18T18:02:12.818Z,1.60
2019-03-18T18:04:42.877Z,1.93
2019-03-18T18:07:12.895Z,1.57
2019-03-18T18:09:42.898Z,1.47
2019-03-18T18:12:15.529Z,1.67
2019-03-18T18:14:45.616Z,2.13
2019-03-18T18:17:15.759Z,1.80
2019-03-18T18:19:45.989Z,2.70
2019-03-18T18:22:16.053Z,2.30
2019-03-18T18:24:46.128Z,1.60
2019-03-18T18:27:15.953Z,1.90
2019-03-18T18:29:55.347Z,1.73
2019-03-18T18:32:25.421Z,1.80
2019-03-18T18:34:58.731Z,2.33
2019-03-18T18:37:32.634Z,1.57
2019-03-18T18:40:04.859Z,2.00
2019-03-18T18:42:34.571Z,1.70
2019-03-18T18:45:04.959Z,1.63
2019-03-18T18:47:35.097Z,1.73
2019-03-18T18:53:27.639Z,2.03
2019-03-18T18:55:57.636Z,2.60
2019-03-18T18:58:27.751Z,2.03
2019-03-18T19:00:57.901Z,2.87
2019-03-18T19:03:31.255Z,2.07
2019-03-18T19:06:01.445Z,2.43
2019-03-18T19:08:32.278Z,2.23
2019-03-18T19:11:05.974Z,3.07
2019-03-18T19:13:36.355Z,2.33
2019-03-18T19:16:10.530Z,2.23
2019-03-18T19:18:43.035Z,3.50
2019-03-18T19:21:14.085Z,2.37
2019-03-18T19:23:44.941Z,2.27
2019-03-18T19:26:15.424Z,2.20
2019-03-18T19:28:47.304Z,2.63
2019-03-18T19:31:17.688Z,1.80
2019-03-18T19:33:48.876Z,2.53
2019-03-18T19:36:19.750Z,2.43
2019-03-18T19:38:50.640Z,1.87
2019-03-18T19:41:22.705Z,2.10
2019-03-18T19:43:54.528Z,2.10
2019-03-18T19:46:24.929Z,2.12
2019-03-18T19:49:01.258Z,2.33
2019-03-18T19:51:41.128Z,2.17
2019-03-18T19:54:24.935Z,2.40
2019-03-18T19:57:20.214Z,2.27
2019-03-18T19:59:51.616Z,2.75
2019-03-18T20:02:21.631Z,2.12
2019-03-18T20:04:52.674Z,2.00
2019-03-18T20:07:22.639Z,2.20
2019-03-18T20:09:55.066Z,1.67
2019-03-18T20:12:24.913Z,2.10
2019-03-18T20:14:59.019Z,2.50
2019-03-18T20:17:47.996Z,2.23
2019-03-18T20:20:20.680Z,1.80
2019-03-18T20:23:18.130Z,2.00
2019-03-18T20:25:48.482Z,2.53
2019-03-18T20:28:19.969Z,1.70
2019-03-18T20:30:50.066Z,2.20
2019-03-18T20:33:21.313Z,2.20
2019-03-18T20:35:55.260Z,2.05
2019-03-18T20:38:31.518Z,2.30
2019-03-18T20:41:01.951Z,2.55
2019-03-18T20:43:32.814Z,1.73
2019-03-18T20:46:04.831Z,2.47
2019-03-18T20:48:36.251Z,2.63
2019-03-18T20:51:06.090Z,2.23
2019-03-18T20:53:39.030Z,1.95
2019-03-18T20:56:10.590Z,2.47
2019-03-18T20:58:44.408Z,1.73
2019-03-18T21:01:15.818Z,2.10
2019-03-18T21:03:46.748Z,2.30
2019-03-18T21:06:16.589Z,3.47
2019-03-18T21:08:49.922Z,2.00
2019-03-18T21:11:20.523Z,2.73
2019-03-18T21:13:57.125Z,2.10
2019-03-18T21:16:25.172Z,2.77
2019-03-18T21:18:56.316Z,2.70
2019-03-18T21:21:26.512Z,1.50
2019-03-18T21:23:56.442Z,2.20
2019-03-18T21:26:27.567Z,2.80
2019-03-18T21:28:57.664Z,2.87
2019-03-18T21:31:28.480Z,2.63
2019-03-18T21:33:58.635Z,2.53
2019-03-18T21:36:37.867Z,2.43
2019-03-18T21:39:00.897Z,2.60
2019-03-18T21:41:32.232Z,2.43
2019-03-18T21:44:02.987Z,2.40
2019-03-18T21:46:33.906Z,2.43
2019-03-18T21:49:08.062Z,2.17
2019-03-18T21:51:39.235Z,2.60
2019-03-18T21:54:09.540Z,2.40
2019-03-18T21:56:39.694Z,3.00
2019-03-18T21:59:11.659Z,2.50
2019-03-18T22:01:41.725Z,2.12
2019-03-18T22:04:11.844Z,2.77
2019-03-18T22:06:41.832Z,3.20
2019-03-18T22:09:12.003Z,3.97
2019-03-18T22:11:43.377Z,2.20
2019-03-18T22:14:15.451Z,2.27
2019-03-18T22:16:52.627Z,2.27
2019-03-18T22:19:40.513Z,2.50
2019-03-18T22:22:11.571Z,3.23
2019-03-18T22:24:45.458Z,3.43
2019-03-18T22:27:13.622Z,2.27
2019-03-18T22:29:43.461Z,2.77
2019-03-18T22:32:19.047Z,2.80
2019-03-18T22:34:50.360Z,3.00
2019-03-18T22:37:24.126Z,2.70
2019-03-18T22:39:56.937Z,2.50
2019-03-18T22:42:40.269Z,2.40
2019-03-18T22:45:12.837Z,2.90
2019-03-18T22:47:44.838Z,3.47
2019-03-18T22:50:18.389Z,2.58
2019-03-18T22:52:48.470Z,2.53
2019-03-18T22:55:19.537Z,2.02
2019-03-18T22:57:50.380Z,2.90
2019-03-18T23:00:48.786Z,2.13
2019-03-18T23:03:18.764Z,2.87
2019-03-18T23:05:48.744Z,2.60
2019-03-18T23:08:18.653Z,2.63
2019-03-18T23:10:49.676Z,3.05
2019-03-18T23:13:19.639Z,2.80
2019-03-18T23:15:49.514Z,2.93
2019-03-18T23:18:19.906Z,2.67
2019-03-18T23:20:49.788Z,2.50
2019-03-18T23:23:20.540Z,3.17
2019-03-18T23:25:50.652Z,2.80
2019-03-18T23:28:26.664Z,2.37
2019-03-18T23:30:56.492Z,2.40
2019-03-18T23:33:26.531Z,2.10
2019-03-18T23:35:56.324Z,3.03
2019-03-18T23:38:26.193Z,2.58
2019-03-18T23:40:55.990Z,2.60
2019-03-18T23:43:25.795Z,3.63
2019-03-18T23:45:58.270Z,2.74
2019-03-18T23:48:28.381Z,3.10
2019-03-18T23:50:58.301Z,2.77
2019-03-18T23:53:28.166Z,2.70
2019-03-18T23:55:58.229Z,2.80
2019-03-18T23:58:28.218Z,2.20
